sensor_id;sensor_type;location;lat;lon;timestamp;temperature;humidity
11538;DHT22;50159;49.426;11.182;2022-11-11T00:01:08;3.30;99.90
11538;DHT22;50159;49.426;11.182;2022-11-11T00:03:37;3.30;99.90
11538;DHT22;50159;49.426;11.182;2022-11-11T00:06:10;3.20;99.90
11538;DHT22;50159;49.426;11.182;2022-11-11T00:08:39;3.20;99.90
11538;DHT22;50159;49.426;11.182;2022-11-11T00:11:11;3.20;99.90
11538;DHT22;50159;49.426;11.182;2022-11-11T00:13:40;3.20;99.90
11538;DHT22;50159;49.426;11.182;2022-11-11T00:16:14;3.20;99.90
11538;DHT22;50159;49.426;11.182;2022-11-11T00:18:43;3.20;99.90
11538;DHT22;50159;49.426;11.182;2022-11-11T00:21:30;3.20;99.90
11538;DHT22;50159;49.426;11.182;2022-11-11T00:24:26;3.20;99.90
11538;DHT22;50159;49.426;11.182;2022-11-11T00:27:14;3.10;99.90
11538;DHT22;50159;49.426;11.182;2022-11-11T00:29:46;3.10;99.90
11538;DHT22;50159;49.426;11.182;2022-11-11T00:32:13;3.10;99.90
11538;DHT22;50159;49.426;11.182;2022-11-11T00:34:50;3.00;99.90
11538;DHT22;50159;49.426;11.182;2022-11-11T00:37:36;3.00;99.90
11538;DHT22;50159;49.426;11.182;2022-11-11T00:40:05;3.00;99.90
11538;DHT22;50159;49.426;11.182;2022-11-11T00:42:33;3.00;99.90
11538;DHT22;50159;49.426;11.182;2022-11-11T00:45:00;3.00;99.90
11538;DHT22;50159;49.426;11.182;2022-11-11T00:47:27;3.00;99.90
11538;DHT22;50159;49.426;11.182;2022-11-11T00:50:15;2.90;99.90
11538;DHT22;50159;49.426;11.182;2022-11-11T00:53:11;2.90;99.90
11538;DHT22;50159;49.426;11.182;2022-11-11T00:55:40;2.90;99.90
11538;DHT22;50159;49.426;11.182;2022-11-11T00:58:07;2.80;99.90
11538;DHT22;50159;49.426;11.182;2022-11-11T01:00:34;2.80;99.90
11538;DHT22;50159;49.426;11.182;2022-11-11T01:03:01;2.80;99.90
11538;DHT22;50159;49.426;11.182;2022-11-11T01:05:28;2.80;99.90
11538;DHT22;50159;49.426;11.182;2022-11-11T01:07:55;2.80;99.90
11538;DHT22;50159;49.426;11.182;2022-11-11T01:10:22;2.80;99.90
11538;DHT22;50159;49.426;11.182;2022-11-11T01:13:16;2.80;99.90
11538;DHT22;50159;49.426;11.182;2022-11-11T01:15:48;2.80;99.90
11538;DHT22;50159;49.426;11.182;2022-11-11T01:18:19;2.70;99.90
11538;DHT22;50159;49.426;11.182;2022-11-11T01:21:12;2.70;99.90
11538;DHT22;50159;49.426;11.182;2022-11-11T01:23:42;2.70;99.90
11538;DHT22;50159;49.426;11.182;2022-11-11T01:26:16;2.60;99.90
11538;DHT22;50159;49.426;11.182;2022-11-11T01:28:48;2.60;99.90
11538;DHT22;50159;49.426;11.182;2022-11-11T01:31:22;2.60;99.90
11538;DHT22;50159;49.426;11.182;2022-11-11T01:33:50;2.50;99.90
11538;DHT22;50159;49.426;11.182;2022-11-11T01:36:22;2.50;99.90
11538;DHT22;50159;49.426;11.182;2022-11-11T01:38:52;2.50;99.90
11538;DHT22;50159;49.426;11.182;2022-11-11T01:41:30;2.50;99.90
11538;DHT22;50159;49.426;11.182;2022-11-11T01:46:44;2.00;99.90
11538;DHT22;50159;49.426;11.182;2022-11-11T01:49:46;2.50;99.90
11538;DHT22;50159;49.426;11.182;2022-11-11T01:52:27;2.50;99.90
11538;DHT22;50159;49.426;11.182;2022-11-11T01:55:18;2.50;99.90
11538;DHT22;50159;49.426;11.182;2022-11-11T01:57:57;2.40;99.90
11538;DHT22;50159;49.426;11.182;2022-11-11T02:00:25;2.40;99.90
11538;DHT22;50159;49.426;11.182;2022-11-11T02:02:56;2.40;99.90
11538;DHT22;50159;49.426;11.182;2022-11-11T02:05:27;2.40;99.90
11538;DHT22;50159;49.426;11.182;2022-11-11T02:08:15;2.40;99.90
11538;DHT22;50159;49.426;11.182;2022-11-11T02:11:16;2.40;99.90
11538;DHT22;50159;49.426;11.182;2022-11-11T02:14:05;2.40;99.90
11538;DHT22;50159;49.426;11.182;2022-11-11T02:16:50;2.40;99.90
11538;DHT22;50159;49.426;11.182;2022-11-11T02:19:23;2.40;99.90
11538;DHT22;50159;49.426;11.182;2022-11-11T02:22:07;2.40;99.90
11538;DHT22;50159;49.426;11.182;2022-11-11T02:24:40;2.40;99.90
11538;DHT22;50159;49.426;11.182;2022-11-11T02:27:10;2.30;99.90
11538;DHT22;50159;49.426;11.182;2022-11-11T02:29:40;2.30;99.90
11538;DHT22;50159;49.426;11.182;2022-11-11T02:32:09;2.30;99.90
11538;DHT22;50159;49.426;11.182;2022-11-11T02:34:35;2.30;99.90
11538;DHT22;50159;49.426;11.182;2022-11-11T02:37:05;2.30;99.90
11538;DHT22;50159;49.426;11.182;2022-11-11T02:39:39;2.30;99.90
11538;DHT22;50159;49.426;11.182;2022-11-11T02:42:29;2.30;99.90
11538;DHT22;50159;49.426;11.182;2022-11-11T02:44:56;2.30;99.90
11538;DHT22;50159;49.426;11.182;2022-11-11T02:47:25;2.20;99.90
11538;DHT22;50159;49.426;11.182;2022-11-11T02:49:52;2.20;99.90
11538;DHT22;50159;49.426;11.182;2022-11-11T02:52:20;2.20;99.90
11538;DHT22;50159;49.426;11.182;2022-11-11T02:54:47;2.20;99.90
11538;DHT22;50159;49.426;11.182;2022-11-11T02:57:15;2.20;99.90
11538;DHT22;50159;49.426;11.182;2022-11-11T02:59:43;2.20;99.90
11538;DHT22;50159;49.426;11.182;2022-11-11T03:02:10;2.20;99.90
11538;DHT22;50159;49.426;11.182;2022-11-11T03:04:37;2.20;99.90
11538;DHT22;50159;49.426;11.182;2022-11-11T03:07:05;2.20;99.90
11538;DHT22;50159;49.426;11.182;2022-11-11T03:09:33;2.10;99.90
11538;DHT22;50159;49.426;11.182;2022-11-11T03:12:00;2.10;99.90
11538;DHT22;50159;49.426;11.182;2022-11-11T03:14:27;2.10;99.90
11538;DHT22;50159;49.426;11.182;2022-11-11T03:16:54;2.00;99.90
11538;DHT22;50159;49.426;11.182;2022-11-11T03:19:39;2.00;99.90
11538;DHT22;50159;49.426;11.182;2022-11-11T03:22:06;2.00;99.90
11538;DHT22;50159;49.426;11.182;2022-11-11T03:24:53;2.00;99.90
11538;DHT22;50159;49.426;11.182;2022-11-11T03:27:40;2.00;99.90
11538;DHT22;50159;49.426;11.182;2022-11-11T03:30:07;2.00;99.90
11538;DHT22;50159;49.426;11.182;2022-11-11T03:32:35;2.00;99.90
11538;DHT22;50159;49.426;11.182;2022-11-11T03:35:01;1.90;99.90
11538;DHT22;50159;49.426;11.182;2022-11-11T03:37:28;1.90;99.90
11538;DHT22;50159;49.426;11.182;2022-11-11T03:40:13;1.80;99.90
11538;DHT22;50159;49.426;11.182;2022-11-11T03:42:40;1.90;99.90
11538;DHT22;50159;49.426;11.182;2022-11-11T03:45:09;1.90;99.90
11538;DHT22;50159;49.426;11.182;2022-11-11T03:47:36;1.90;99.90
11538;DHT22;50159;49.426;11.182;2022-11-11T03:50:03;1.90;99.90
11538;DHT22;50159;49.426;11.182;2022-11-11T03:52:30;1.90;99.90
11538;DHT22;50159;49.426;11.182;2022-11-11T03:54:56;1.90;99.90
11538;DHT22;50159;49.426;11.182;2022-11-11T03:57:23;1.90;99.90
11538;DHT22;50159;49.426;11.182;2022-11-11T03:59:56;1.90;99.90
11538;DHT22;50159;49.426;11.182;2022-11-11T04:02:22;2.00;99.90
11538;DHT22;50159;49.426;11.182;2022-11-11T04:05:08;1.80;99.90
11538;DHT22;50159;49.426;11.182;2022-11-11T04:07:54;1.80;99.90
11538;DHT22;50159;49.426;11.182;2022-11-11T04:10:39;1.80;99.90
11538;DHT22;50159;49.426;11.182;2022-11-11T04:13:06;1.80;99.90
11538;DHT22;50159;49.426;11.182;2022-11-11T04:15:52;1.70;99.90
11538;DHT22;50159;49.426;11.182;2022-11-11T04:18:34;1.80;99.90
11538;DHT22;50159;49.426;11.182;2022-11-11T04:21:21;1.80;99.90
11538;DHT22;50159;49.426;11.182;2022-11-11T04:24:10;1.80;99.90
11538;DHT22;50159;49.426;11.182;2022-11-11T04:26:59;1.70;99.90
11538;DHT22;50159;49.426;11.182;2022-11-11T04:29:28;1.70;99.90
11538;DHT22;50159;49.426;11.182;2022-11-11T04:32:09;1.80;99.90
11538;DHT22;50159;49.426;11.182;2022-11-11T04:35:01;1.70;99.90
11538;DHT22;50159;49.426;11.182;2022-11-11T04:37:31;1.70;99.90
11538;DHT22;50159;49.426;11.182;2022-11-11T04:40:00;1.70;99.90
11538;DHT22;50159;49.426;11.182;2022-11-11T04:42:46;1.70;99.90
11538;DHT22;50159;49.426;11.182;2022-11-11T04:45:13;1.70;99.90
11538;DHT22;50159;49.426;11.182;2022-11-11T04:48:08;1.70;99.90
11538;DHT22;50159;49.426;11.182;2022-11-11T04:50:38;1.60;99.90
11538;DHT22;50159;49.426;11.182;2022-11-11T04:53:08;1.60;99.90
11538;DHT22;50159;49.426;11.182;2022-11-11T04:55:38;1.60;99.90
11538;DHT22;50159;49.426;11.182;2022-11-11T04:58:27;1.60;99.90
11538;DHT22;50159;49.426;11.182;2022-11-11T05:00:55;1.60;99.90
11538;DHT22;50159;49.426;11.182;2022-11-11T05:03:22;1.60;99.90
11538;DHT22;50159;49.426;11.182;2022-11-11T05:05:55;1.60;99.90
11538;DHT22;50159;49.426;11.182;2022-11-11T05:08:43;1.60;99.90
11538;DHT22;50159;49.426;11.182;2022-11-11T05:11:32;1.60;99.90
11538;DHT22;50159;49.426;11.182;2022-11-11T05:14:05;1.60;99.90
11538;DHT22;50159;49.426;11.182;2022-11-11T05:16:56;1.60;99.90
11538;DHT22;50159;49.426;11.182;2022-11-11T05:19:42;1.60;99.90
11538;DHT22;50159;49.426;11.182;2022-11-11T05:22:42;1.50;99.90
11538;DHT22;50159;49.426;11.182;2022-11-11T05:25:11;1.50;99.90
11538;DHT22;50159;49.426;11.182;2022-11-11T05:27:56;1.50;99.90
11538;DHT22;50159;49.426;11.182;2022-11-11T05:30:24;1.50;99.90
11538;DHT22;50159;49.426;11.182;2022-11-11T05:32:54;1.50;99.90
11538;DHT22;50159;49.426;11.182;2022-11-11T05:35:21;1.50;99.90
11538;DHT22;50159;49.426;11.182;2022-11-11T05:37:48;1.40;99.90
11538;DHT22;50159;49.426;11.182;2022-11-11T05:40:34;1.40;99.90
11538;DHT22;50159;49.426;11.182;2022-11-11T05:43:01;1.40;99.90
11538;DHT22;50159;49.426;11.182;2022-11-11T05:45:28;1.40;99.90
11538;DHT22;50159;49.426;11.182;2022-11-11T05:48:00;1.40;99.90
11538;DHT22;50159;49.426;11.182;2022-11-11T05:50:28;1.40;99.90
11538;DHT22;50159;49.426;11.182;2022-11-11T05:52:55;1.40;99.90
11538;DHT22;50159;49.426;11.182;2022-11-11T05:55:21;1.40;99.90
11538;DHT22;50159;49.426;11.182;2022-11-11T05:57:48;1.50;99.90
11538;DHT22;50159;49.426;11.182;2022-11-11T06:00:17;1.50;99.90
11538;DHT22;50159;49.426;11.182;2022-11-11T06:02:44;1.50;99.90
11538;DHT22;50159;49.426;11.182;2022-11-11T06:05:10;1.50;99.90
11538;DHT22;50159;49.426;11.182;2022-11-11T06:07:38;1.50;99.90
11538;DHT22;50159;49.426;11.182;2022-11-11T06:10:08;1.50;99.90
11538;DHT22;50159;49.426;11.182;2022-11-11T06:12:53;1.40;99.90
11538;DHT22;50159;49.426;11.182;2022-11-11T06:15:37;1.40;99.90
11538;DHT22;50159;49.426;11.182;2022-11-11T06:18:05;1.40;99.90
11538;DHT22;50159;49.426;11.182;2022-11-11T06:20:32;1.40;99.90
11538;DHT22;50159;49.426;11.182;2022-11-11T06:23:03;1.40;99.90
11538;DHT22;50159;49.426;11.182;2022-11-11T06:25:32;1.40;99.90
11538;DHT22;50159;49.426;11.182;2022-11-11T06:28:18;1.40;99.90
11538;DHT22;50159;49.426;11.182;2022-11-11T06:30:45;1.40;99.90
11538;DHT22;50159;49.426;11.182;2022-11-11T06:33:16;1.40;99.90
11538;DHT22;50159;49.426;11.182;2022-11-11T06:35:43;1.50;99.90
11538;DHT22;50159;49.426;11.182;2022-11-11T06:38:10;1.50;99.90
11538;DHT22;50159;49.426;11.182;2022-11-11T06:40:37;1.50;99.90
11538;DHT22;50159;49.426;11.182;2022-11-11T06:43:05;1.50;99.90
11538;DHT22;50159;49.426;11.182;2022-11-11T06:45:31;1.50;99.90
11538;DHT22;50159;49.426;11.182;2022-11-11T06:48:00;1.60;99.90
11538;DHT22;50159;49.426;11.182;2022-11-11T06:50:32;1.60;99.90
11538;DHT22;50159;49.426;11.182;2022-11-11T06:53:04;1.60;99.90
11538;DHT22;50159;49.426;11.182;2022-11-11T06:55:35;1.70;99.90
11538;DHT22;50159;49.426;11.182;2022-11-11T06:58:07;1.80;99.90
11538;DHT22;50159;49.426;11.182;2022-11-11T07:00:36;1.90;99.90
11538;DHT22;50159;49.426;11.182;2022-11-11T07:03:05;1.90;99.90
11538;DHT22;50159;49.426;11.182;2022-11-11T07:05:33;2.00;99.90
11538;DHT22;50159;49.426;11.182;2022-11-11T07:08:08;2.00;99.90
11538;DHT22;50159;49.426;11.182;2022-11-11T07:10:38;2.10;99.90
11538;DHT22;50159;49.426;11.182;2022-11-11T07:13:07;2.20;99.90
11538;DHT22;50159;49.426;11.182;2022-11-11T07:15:35;2.30;99.90
11538;DHT22;50159;49.426;11.182;2022-11-11T07:18:02;2.50;99.90
11538;DHT22;50159;49.426;11.182;2022-11-11T07:20:30;2.80;99.90
11538;DHT22;50159;49.426;11.182;2022-11-11T07:22:57;3.30;99.90
11538;DHT22;50159;49.426;11.182;2022-11-11T07:25:24;3.90;99.90
11538;DHT22;50159;49.426;11.182;2022-11-11T07:27:51;4.40;99.90
11538;DHT22;50159;49.426;11.182;2022-11-11T07:30:24;5.00;99.90
11538;DHT22;50159;49.426;11.182;2022-11-11T07:32:52;5.80;99.90
11538;DHT22;50159;49.426;11.182;2022-11-11T07:35:20;6.80;99.90
11538;DHT22;50159;49.426;11.182;2022-11-11T07:37:47;7.70;99.90
11538;DHT22;50159;49.426;11.182;2022-11-11T07:40:15;8.60;99.90
11538;DHT22;50159;49.426;11.182;2022-11-11T07:42:43;9.40;99.90
11538;DHT22;50159;49.426;11.182;2022-11-11T07:45:12;10.20;99.90
11538;DHT22;50159;49.426;11.182;2022-11-11T07:47:44;10.90;95.30
11538;DHT22;50159;49.426;11.182;2022-11-11T07:50:11;11.50;92.40
11538;DHT22;50159;49.426;11.182;2022-11-11T07:52:39;11.60;88.00
11538;DHT22;50159;49.426;11.182;2022-11-11T07:55:07;11.60;86.10
11538;DHT22;50159;49.426;11.182;2022-11-11T07:57:34;12.00;84.20
11538;DHT22;50159;49.426;11.182;2022-11-11T08:00:03;12.40;80.80
11538;DHT22;50159;49.426;11.182;2022-11-11T08:02:31;12.80;80.50
11538;DHT22;50159;49.426;11.182;2022-11-11T08:04:58;12.70;76.20
11538;DHT22;50159;49.426;11.182;2022-11-11T08:07:25;12.10;78.50
11538;DHT22;50159;49.426;11.182;2022-11-11T08:09:51;11.20;79.10
11538;DHT22;50159;49.426;11.182;2022-11-11T08:12:18;10.50;83.00
11538;DHT22;50159;49.426;11.182;2022-11-11T08:15:04;9.70;89.30
11538;DHT22;50159;49.426;11.182;2022-11-11T08:17:39;9.20;92.50
11538;DHT22;50159;49.426;11.182;2022-11-11T08:20:07;8.80;95.30
11538;DHT22;50159;49.426;11.182;2022-11-11T08:22:39;8.60;98.00
11538;DHT22;50159;49.426;11.182;2022-11-11T08:25:12;8.50;99.90
11538;DHT22;50159;49.426;11.182;2022-11-11T08:27:41;8.40;99.90
11538;DHT22;50159;49.426;11.182;2022-11-11T08:30:09;8.30;99.90
11538;DHT22;50159;49.426;11.182;2022-11-11T08:32:36;8.30;99.90
11538;DHT22;50159;49.426;11.182;2022-11-11T08:35:03;8.30;99.90
11538;DHT22;50159;49.426;11.182;2022-11-11T08:37:30;8.40;99.90
11538;DHT22;50159;49.426;11.182;2022-11-11T08:39:57;8.40;99.90
11538;DHT22;50159;49.426;11.182;2022-11-11T08:42:24;8.50;99.90
11538;DHT22;50159;49.426;11.182;2022-11-11T08:44:50;8.60;99.90
11538;DHT22;50159;49.426;11.182;2022-11-11T08:47:17;8.70;99.90
11538;DHT22;50159;49.426;11.182;2022-11-11T08:49:46;8.80;99.90
11538;DHT22;50159;49.426;11.182;2022-11-11T08:52:14;9.00;99.90
11538;DHT22;50159;49.426;11.182;2022-11-11T08:54:41;9.20;99.90
11538;DHT22;50159;49.426;11.182;2022-11-11T08:57:08;9.50;99.90
11538;DHT22;50159;49.426;11.182;2022-11-11T08:59:35;9.70;99.90
11538;DHT22;50159;49.426;11.182;2022-11-11T09:02:02;9.90;99.90
11538;DHT22;50159;49.426;11.182;2022-11-11T09:04:28;10.10;99.90
11538;DHT22;50159;49.426;11.182;2022-11-11T09:07:17;10.10;99.90
11538;DHT22;50159;49.426;11.182;2022-11-11T09:09:44;10.20;99.90
11538;DHT22;50159;49.426;11.182;2022-11-11T09:12:11;10.30;99.90
11538;DHT22;50159;49.426;11.182;2022-11-11T09:14:37;10.30;99.90
11538;DHT22;50159;49.426;11.182;2022-11-11T09:17:05;10.30;99.90
11538;DHT22;50159;49.426;11.182;2022-11-11T09:19:32;10.30;99.90
11538;DHT22;50159;49.426;11.182;2022-11-11T09:21:59;10.30;99.90
11538;DHT22;50159;49.426;11.182;2022-11-11T09:24:26;10.40;99.90
11538;DHT22;50159;49.426;11.182;2022-11-11T09:26:52;10.50;99.90
11538;DHT22;50159;49.426;11.182;2022-11-11T09:29:19;10.60;99.90
11538;DHT22;50159;49.426;11.182;2022-11-11T09:31:46;10.80;99.90
11538;DHT22;50159;49.426;11.182;2022-11-11T09:34:13;10.90;99.90
11538;DHT22;50159;49.426;11.182;2022-11-11T09:36:41;11.00;99.90
11538;DHT22;50159;49.426;11.182;2022-11-11T09:39:08;11.10;99.90
11538;DHT22;50159;49.426;11.182;2022-11-11T09:42:26;11.20;99.90
11538;DHT22;50159;49.426;11.182;2022-11-11T09:48:02;11.50;99.90
11538;DHT22;50159;49.426;11.182;2022-11-11T09:50:53;11.60;99.90
11538;DHT22;50159;49.426;11.182;2022-11-11T09:53:41;11.70;99.90
11538;DHT22;50159;49.426;11.182;2022-11-11T09:56:18;11.80;99.90
11538;DHT22;50159;49.426;11.182;2022-11-11T10:01:47;12.10;99.90
11538;DHT22;50159;49.426;11.182;2022-11-11T10:07:25;12.30;99.90
11538;DHT22;50159;49.426;11.182;2022-11-11T10:10:10;12.30;99.90
11538;DHT22;50159;49.426;11.182;2022-11-11T10:12:56;12.30;99.90
11538;DHT22;50159;49.426;11.182;2022-11-11T10:15:29;12.40;99.90
11538;DHT22;50159;49.426;11.182;2022-11-11T10:20:58;12.60;99.90
11538;DHT22;50159;49.426;11.182;2022-11-11T10:23:32;12.60;99.90
11538;DHT22;50159;49.426;11.182;2022-11-11T10:26:09;12.70;99.90
11538;DHT22;50159;49.426;11.182;2022-11-11T10:28:42;12.80;99.90
11538;DHT22;50159;49.426;11.182;2022-11-11T10:31:17;13.00;99.90
11538;DHT22;50159;49.426;11.182;2022-11-11T10:34:16;13.10;99.90
11538;DHT22;50159;49.426;11.182;2022-11-11T10:36:50;13.30;99.90
11538;DHT22;50159;49.426;11.182;2022-11-11T10:39:31;13.50;99.90
11538;DHT22;50159;49.426;11.182;2022-11-11T10:42:03;13.70;99.90
11538;DHT22;50159;49.426;11.182;2022-11-11T10:44:33;13.90;99.90
11538;DHT22;50159;49.426;11.182;2022-11-11T10:47:30;14.30;99.90
11538;DHT22;50159;49.426;11.182;2022-11-11T10:53:20;14.80;99.90
11538;DHT22;50159;49.426;11.182;2022-11-11T10:56:17;14.90;99.90
11538;DHT22;50159;49.426;11.182;2022-11-11T10:58:59;14.70;99.90
11538;DHT22;50159;49.426;11.182;2022-11-11T11:01:37;14.60;99.90
11538;DHT22;50159;49.426;11.182;2022-11-11T11:07:16;14.80;99.90
11538;DHT22;50159;49.426;11.182;2022-11-11T11:09:52;15.00;99.90
11538;DHT22;50159;49.426;11.182;2022-11-11T11:12:37;15.20;99.90
11538;DHT22;50159;49.426;11.182;2022-11-11T11:15:12;15.50;99.10
11538;DHT22;50159;49.426;11.182;2022-11-11T11:17:53;15.70;98.80
11538;DHT22;50159;49.426;11.182;2022-11-11T11:20:24;16.00;97.70
11538;DHT22;50159;49.426;11.182;2022-11-11T11:22:52;16.10;97.80
11538;DHT22;50159;49.426;11.182;2022-11-11T11:25:23;16.20;96.50
11538;DHT22;50159;49.426;11.182;2022-11-11T11:27:52;16.40;96.20
11538;DHT22;50159;49.426;11.182;2022-11-11T11:30:30;16.60;94.40
11538;DHT22;50159;49.426;11.182;2022-11-11T11:33:03;16.80;94.60
11538;DHT22;50159;49.426;11.182;2022-11-11T11:35:44;17.00;93.20
11538;DHT22;50159;49.426;11.182;2022-11-11T11:38:11;17.20;93.00
11538;DHT22;50159;49.426;11.182;2022-11-11T11:40:54;17.50;91.90
11538;DHT22;50159;49.426;11.182;2022-11-11T11:43:39;17.50;89.20
11538;DHT22;50159;49.426;11.182;2022-11-11T11:49:16;17.80;86.30
11538;DHT22;50159;49.426;11.182;2022-11-11T11:52:28;17.60;81.00
11538;DHT22;50159;49.426;11.182;2022-11-11T11:55:39;17.40;82.90
11538;DHT22;50159;49.426;11.182;2022-11-11T12:01:25;17.60;82.70
11538;DHT22;50159;49.426;11.182;2022-11-11T12:16:24;17.10;80.80
11538;DHT22;50159;49.426;11.182;2022-11-11T12:21:41;16.80;82.90
11538;DHT22;50159;49.426;11.182;2022-11-11T12:28:01;16.60;83.30
11538;DHT22;50159;49.426;11.182;2022-11-11T12:30:29;16.60;85.40
11538;DHT22;50159;49.426;11.182;2022-11-11T12:44:09;16.70;79.80
11538;DHT22;50159;49.426;11.182;2022-11-11T12:46:55;16.70;80.70
11538;DHT22;50159;49.426;11.182;2022-11-11T12:55:21;17.10;80.20
11538;DHT22;50159;49.426;11.182;2022-11-11T12:58:23;17.30;78.80
11538;DHT22;50159;49.426;11.182;2022-11-11T13:01:19;17.30;78.10
11538;DHT22;50159;49.426;11.182;2022-11-11T13:07:32;17.30;77.30
11538;DHT22;50159;49.426;11.182;2022-11-11T13:13:56;17.40;77.10
11538;DHT22;50159;49.426;11.182;2022-11-11T13:16:36;17.30;74.40
11538;DHT22;50159;49.426;11.182;2022-11-11T13:19:14;17.20;76.20
11538;DHT22;50159;49.426;11.182;2022-11-11T13:22:02;17.10;77.10
11538;DHT22;50159;49.426;11.182;2022-11-11T13:24:36;17.00;78.80
11538;DHT22;50159;49.426;11.182;2022-11-11T13:27:06;17.00;80.10
11538;DHT22;50159;49.426;11.182;2022-11-11T13:33:16;17.80;80.00
11538;DHT22;50159;49.426;11.182;2022-11-11T13:36:00;18.70;75.80
11538;DHT22;50159;49.426;11.182;2022-11-11T13:38:33;21.00;69.20
11538;DHT22;50159;49.426;11.182;2022-11-11T13:41:25;22.80;59.50
11538;DHT22;50159;49.426;11.182;2022-11-11T13:43:57;23.80;54.40
11538;DHT22;50159;49.426;11.182;2022-11-11T13:49:24;24.30;51.60
11538;DHT22;50159;49.426;11.182;2022-11-11T13:52:01;24.60;51.10
11538;DHT22;50159;49.426;11.182;2022-11-11T13:55:00;25.10;49.40
11538;DHT22;50159;49.426;11.182;2022-11-11T13:57:49;25.20;47.80
11538;DHT22;50159;49.426;11.182;2022-11-11T14:02:46;24.30;48.40
11538;DHT22;50159;49.426;11.182;2022-11-11T14:15:51;22.80;51.90
11538;DHT22;50159;49.426;11.182;2022-11-11T14:20:51;21.90;53.00
11538;DHT22;50159;49.426;11.182;2022-11-11T14:28:41;18.80;58.60
11538;DHT22;50159;49.426;11.182;2022-11-11T14:37:26;16.40;67.20
11538;DHT22;50159;49.426;11.182;2022-11-11T14:40:26;15.80;69.80
11538;DHT22;50159;49.426;11.182;2022-11-11T14:42:55;15.40;71.50
11538;DHT22;50159;49.426;11.182;2022-11-11T14:47:56;14.70;73.80
11538;DHT22;50159;49.426;11.182;2022-11-11T14:52:55;14.30;76.70
11538;DHT22;50159;49.426;11.182;2022-11-11T14:55:37;14.10;78.20
11538;DHT22;50159;49.426;11.182;2022-11-11T14:58:14;14.00;80.20
11538;DHT22;50159;49.426;11.182;2022-11-11T15:00:59;13.90;82.00
11538;DHT22;50159;49.426;11.182;2022-11-11T15:03:38;13.80;84.10
11538;DHT22;50159;49.426;11.182;2022-11-11T15:06:31;13.60;85.80
11538;DHT22;50159;49.426;11.182;2022-11-11T15:21:06;13.00;94.80
11538;DHT22;50159;49.426;11.182;2022-11-11T15:23:47;12.80;96.40
11538;DHT22;50159;49.426;11.182;2022-11-11T15:29:21;12.50;99.60
11538;DHT22;50159;49.426;11.182;2022-11-11T15:38:24;11.80;99.90
11538;DHT22;50159;49.426;11.182;2022-11-11T15:40:55;11.70;99.90
11538;DHT22;50159;49.426;11.182;2022-11-11T15:43:30;11.50;99.90
11538;DHT22;50159;49.426;11.182;2022-11-11T15:46:03;11.30;99.90
11538;DHT22;50159;49.426;11.182;2022-11-11T15:48:37;11.20;99.90
11538;DHT22;50159;49.426;11.182;2022-11-11T15:54:30;10.90;99.90
11538;DHT22;50159;49.426;11.182;2022-11-11T15:57:25;10.70;99.90
11538;DHT22;50159;49.426;11.182;2022-11-11T15:59:55;10.60;99.90
11538;DHT22;50159;49.426;11.182;2022-11-11T16:02:31;10.50;99.90
11538;DHT22;50159;49.426;11.182;2022-11-11T16:05:06;10.40;99.90
11538;DHT22;50159;49.426;11.182;2022-11-11T16:07:41;10.30;99.90
11538;DHT22;50159;49.426;11.182;2022-11-11T16:10:31;10.10;99.90
11538;DHT22;50159;49.426;11.182;2022-11-11T16:13:19;10.00;99.90
11538;DHT22;50159;49.426;11.182;2022-11-11T16:22:20;9.70;99.90
11538;DHT22;50159;49.426;11.182;2022-11-11T16:24:54;9.60;99.90
11538;DHT22;50159;49.426;11.182;2022-11-11T16:27:25;9.50;99.90
11538;DHT22;50159;49.426;11.182;2022-11-11T16:30:17;9.40;99.90
11538;DHT22;50159;49.426;11.182;2022-11-11T16:32:56;9.30;99.90
11538;DHT22;50159;49.426;11.182;2022-11-11T16:35:35;9.20;99.90
11538;DHT22;50159;49.426;11.182;2022-11-11T16:38:05;9.10;99.90
11538;DHT22;50159;49.426;11.182;2022-11-11T16:46:08;8.80;99.90
11538;DHT22;50159;49.426;11.182;2022-11-11T16:48:49;8.70;99.90
11538;DHT22;50159;49.426;11.182;2022-11-11T16:51:22;8.60;99.90
11538;DHT22;50159;49.426;11.182;2022-11-11T16:54:23;8.60;99.90
11538;DHT22;50159;49.426;11.182;2022-11-11T16:56:56;8.50;99.90
11538;DHT22;50159;49.426;11.182;2022-11-11T17:02:17;8.50;99.90
11538;DHT22;50159;49.426;11.182;2022-11-11T17:04:51;8.40;99.90
11538;DHT22;50159;49.426;11.182;2022-11-11T17:07:36;8.40;99.90
11538;DHT22;50159;49.426;11.182;2022-11-11T17:12:39;8.20;99.90
11538;DHT22;50159;49.426;11.182;2022-11-11T17:15:07;8.10;99.90
11538;DHT22;50159;49.426;11.182;2022-11-11T17:17:37;8.10;99.90
11538;DHT22;50159;49.426;11.182;2022-11-11T17:20:07;8.10;99.90
11538;DHT22;50159;49.426;11.182;2022-11-11T17:22:48;8.00;99.90
11538;DHT22;50159;49.426;11.182;2022-11-11T17:25:17;7.90;99.90
11538;DHT22;50159;49.426;11.182;2022-11-11T17:27:44;7.90;99.90
11538;DHT22;50159;49.426;11.182;2022-11-11T17:30:14;7.80;99.90
11538;DHT22;50159;49.426;11.182;2022-11-11T17:32:41;7.80;99.90
11538;DHT22;50159;49.426;11.182;2022-11-11T17:35:08;7.70;99.90
11538;DHT22;50159;49.426;11.182;2022-11-11T17:37:37;7.70;99.90
11538;DHT22;50159;49.426;11.182;2022-11-11T17:40:09;7.60;99.90
11538;DHT22;50159;49.426;11.182;2022-11-11T17:42:36;7.60;99.90
11538;DHT22;50159;49.426;11.182;2022-11-11T17:45:04;7.60;99.90
11538;DHT22;50159;49.426;11.182;2022-11-11T17:47:32;7.50;99.90
11538;DHT22;50159;49.426;11.182;2022-11-11T17:50:05;7.40;99.90
11538;DHT22;50159;49.426;11.182;2022-11-11T17:52:32;7.40;99.90
11538;DHT22;50159;49.426;11.182;2022-11-11T17:54:59;7.40;99.90
11538;DHT22;50159;49.426;11.182;2022-11-11T17:57:25;7.40;99.90
11538;DHT22;50159;49.426;11.182;2022-11-11T17:59:52;7.30;99.90
11538;DHT22;50159;49.426;11.182;2022-11-11T18:02:19;7.30;99.90
11538;DHT22;50159;49.426;11.182;2022-11-11T18:04:46;7.30;99.90
11538;DHT22;50159;49.426;11.182;2022-11-11T18:07:12;7.20;99.90
11538;DHT22;50159;49.426;11.182;2022-11-11T18:09:39;7.20;99.90
11538;DHT22;50159;49.426;11.182;2022-11-11T18:12:06;7.10;99.90
11538;DHT22;50159;49.426;11.182;2022-11-11T18:14:33;7.00;99.90
11538;DHT22;50159;49.426;11.182;2022-11-11T18:16:59;7.00;99.90
11538;DHT22;50159;49.426;11.182;2022-11-11T18:19:26;6.90;99.90
11538;DHT22;50159;49.426;11.182;2022-11-11T18:21:53;6.80;99.90
11538;DHT22;50159;49.426;11.182;2022-11-11T18:24:20;6.80;99.90
11538;DHT22;50159;49.426;11.182;2022-11-11T18:26:46;6.80;99.90
11538;DHT22;50159;49.426;11.182;2022-11-11T18:29:13;6.80;99.90
11538;DHT22;50159;49.426;11.182;2022-11-11T18:31:40;6.70;99.90
11538;DHT22;50159;49.426;11.182;2022-11-11T18:34:07;6.70;99.90
11538;DHT22;50159;49.426;11.182;2022-11-11T18:36:33;6.70;99.90
11538;DHT22;50159;49.426;11.182;2022-11-11T18:39:00;6.60;99.90